Time;durP1;ratioP1;P1;durP2;ratioP2;P2;SDS_P1;SDS_P2;PMS_P1;PMS_P2;Temp;Humidity;BMP_temperature;BMP_pressure;BME280_temperature;BME280_humidity;BME280_pressure;Samples;Min_cycle;Max_cycle;Signal;HPM_P1;HPM_P2
2022/10/21 00:00:28;;;;;;;26.77;13.50;;;;;;;7.76;64.58;100557.31;5038901;27;97162;-91
2022/10/21 00:02:53;;;;;;;23.20;13.07;;;;;;;7.76;64.89;100544.25;5010750;27;96860;-93
2022/10/21 00:05:19;;;;;;;28.63;14.07;;;;;;;7.71;64.80;100548.72;5022409;27;100578;-85
2022/10/21 00:07:45;;;;;;;23.13;12.27;;;;;;;7.66;65.15;100542.72;5021161;27;100747;-91
2022/10/21 00:10:10;;;;;;;24.15;13.48;;;;;;;7.63;64.83;100543.63;5021498;27;96647;-92
2022/10/21 00:12:36;;;;;;;23.48;14.30;;;;;;;7.43;65.56;100532.66;5020419;27;97294;-92
2022/10/21 00:15:04;;;;;;;22.23;12.50;;;;;;;7.36;65.68;100528.44;5021819;27;98447;-92
2022/10/21 00:17:30;;;;;;;21.30;13.30;;;;;;;7.50;65.55;100534.28;5018290;27;100916;-92
2022/10/21 00:19:55;;;;;;;24.90;13.65;;;;;;;7.44;65.27;100516.09;5030905;28;97259;-93
2022/10/21 00:22:22;;;;;;;26.43;14.57;;;;;;;7.31;65.52;100506.78;5034476;28;97134;-91
2022/10/21 00:24:47;;;;;;;25.23;14.63;;;;;;;7.33;66.10;100538.94;5017133;27;101007;-92
2022/10/21 00:27:13;;;;;;;27.23;14.25;;;;;;;7.22;66.39;100521.72;5055806;27;97973;-92
2022/10/21 00:29:38;;;;;;;20.55;13.15;;;;;;;7.18;66.72;100527.00;5020673;27;96744;-88
2022/10/21 00:32:04;;;;;;;27.48;13.48;;;;;;;7.19;66.70;100510.47;5055809;27;96883;-94
2022/10/21 00:34:31;;;;;;;28.00;15.48;;;;;;;7.42;66.00;100516.13;5023029;27;101182;-93
2022/10/21 00:36:57;;;;;;;24.40;14.07;;;;;;;7.39;66.53;100504.91;5021716;27;101222;-93
2022/10/21 00:39:22;;;;;;;27.40;14.10;;;;;;;7.33;66.66;100502.38;4993861;28;96843;-86
2022/10/21 00:41:48;;;;;;;23.17;13.73;;;;;;;7.38;66.67;100496.16;5032804;27;96855;-92
2022/10/21 00:44:14;;;;;;;27.08;15.23;;;;;;;7.28;66.42;100460.69;5021155;27;101891;-92
2022/10/21 00:47:01;;;;;;;28.03;14.50;;;;;;;7.21;66.37;100459.06;5003746;27;101194;-92
2022/10/21 00:49:38;;;;;;;22.90;14.18;;;;;;;7.37;66.72;100481.41;5018738;27;96804;-92
2022/10/21 00:52:14;;;;;;;24.23;13.70;;;;;;;7.40;66.93;100483.09;5036310;27;97038;-93
2022/10/21 00:54:40;;;;;;;25.23;14.60;;;;;;;7.43;66.70;100483.91;5036515;27;98528;-92
2022/10/21 00:57:07;;;;;;;25.75;14.80;;;;;;;7.33;66.86;100464.09;5036313;27;97557;-92
2022/10/21 00:59:35;;;;;;;28.40;14.75;;;;;;;7.15;67.26;100454.81;5019374;27;97149;-92
2022/10/21 01:02:01;;;;;;;24.20;14.07;;;;;;;7.26;67.01;100459.84;5021005;27;96751;-93
2022/10/21 01:04:27;;;;;;;29.75;14.70;;;;;;;7.36;67.34;100466.63;5030525;28;98492;-92
2022/10/21 01:06:53;;;;;;;27.77;14.60;;;;;;;7.47;66.72;100458.56;5012925;28;101266;-92
2022/10/21 01:09:19;;;;;;;24.03;14.13;;;;;;;7.51;66.69;100462.00;5035793;27;97214;-92
2022/10/21 01:11:46;;;;;;;25.37;15.33;;;;;;;7.45;66.64;100466.47;5020036;27;97476;-92
2022/10/21 01:14:18;;;;;;;39.65;15.57;;;;;;;7.24;67.27;100446.84;5006784;28;100391;-93
2022/10/21 01:16:49;;;;;;;23.63;14.82;;;;;;;7.30;67.39;100461.53;5036109;27;100145;-93
2022/10/21 01:19:33;;;;;;;26.95;14.40;;;;;;;7.34;67.06;100463.19;5025145;28;97061;-92
2022/10/21 01:22:04;;;;;;;27.42;15.25;;;;;;;7.32;67.91;100456.25;5042591;27;97021;-93
2022/10/21 01:24:51;;;;;;;25.37;14.80;;;;;;;7.18;67.61;100430.41;5060162;27;100463;-92
2022/10/21 01:27:37;;;;;;;25.73;14.50;;;;;;;7.35;67.86;100440.53;5056112;27;97344;-93
2022/10/21 01:30:05;;;;;;;34.60;16.13;;;;;;;7.33;67.78;100448.41;5000661;27;96792;-90
2022/10/21 01:32:40;;;;;;;26.03;16.10;;;;;;;7.22;68.06;100460.81;5016392;27;96917;-93
2022/10/21 01:35:13;;;;;;;22.92;13.70;;;;;;;7.15;68.39;100460.03;5020476;27;101045;-92
2022/10/21 01:38:11;;;;;;;33.17;16.07;;;;;;;7.00;68.83;100476.81;4992938;27;100084;-92
2022/10/21 01:40:44;;;;;;;26.17;14.93;;;;;;;7.07;68.76;100475.00;5008812;27;97458;-92
2022/10/21 01:43:31;;;;;;;26.37;14.63;;;;;;;7.18;68.37;100466.94;5021337;27;99948;-92
2022/10/21 01:46:04;;;;;;;26.40;14.77;;;;;;;7.21;68.04;100462.56;5032552;27;98030;-93
2022/10/21 01:48:34;;;;;;;25.98;14.90;;;;;;;7.33;67.76;100457.97;5002389;27;101425;-91
2022/10/21 01:51:05;;;;;;;26.65;15.65;;;;;;;7.37;67.58;100462.25;5003314;27;96807;-93
2022/10/21 01:53:42;;;;;;;24.90;15.00;;;;;;;7.38;67.73;100454.38;5036100;27;97084;-91
2022/10/21 01:56:09;;;;;;;21.83;14.80;;;;;;;7.28;67.77;100458.06;5017058;27;98456;-92
2022/10/21 01:58:36;;;;;;;30.67;15.68;;;;;;;7.29;67.78;100454.56;5003287;27;101604;-92
2022/10/21 02:01:03;;;;;;;27.33;15.27;;;;;;;7.23;68.11;100463.38;5018830;27;97147;-93
2022/10/21 02:03:32;;;;;;;26.33;15.40;;;;;;;7.19;68.02;100459.09;5019407;27;97151;-87
2022/10/21 02:05:58;;;;;;;27.27;15.60;;;;;;;7.32;67.75;100459.72;5003096;27;100107;-92
2022/10/21 02:08:23;;;;;;;26.67;14.33;;;;;;;7.32;67.64;100453.66;5020016;27;98029;-88
2022/10/21 02:10:51;;;;;;;25.40;14.90;;;;;;;7.34;67.51;100451.88;5017101;27;96837;-89
2022/10/21 02:13:24;;;;;;;27.33;14.97;;;;;;;7.38;67.69;100451.78;5041868;27;96676;-92
2022/10/21 02:15:53;;;;;;;27.13;16.47;;;;;;;7.09;68.04;100418.38;5050446;27;98675;-91
2022/10/21 02:18:22;;;;;;;25.37;15.47;;;;;;;7.21;68.13;100446.88;5018300;27;97292;-93
2022/10/21 02:20:52;;;;;;;25.87;15.73;;;;;;;7.22;68.63;100450.34;4999186;28;96713;-92
2022/10/21 02:23:22;;;;;;;29.90;15.70;;;;;;;7.12;68.68;100444.41;5027121;27;96803;-92
2022/10/21 02:25:49;;;;;;;27.00;15.63;;;;;;;7.13;68.52;100437.47;4999758;28;99504;-92
2022/10/21 02:28:15;;;;;;;29.23;15.15;;;;;;;7.14;68.44;100447.88;5065207;27;101625;-92
2022/10/21 02:30:55;;;;;;;26.08;14.98;;;;;;;7.18;68.52;100449.53;5053206;27;97367;-92
2022/10/21 02:33:52;;;;;;;24.30;14.60;;;;;;;7.25;68.58;100450.31;5043040;27;97266;-93
2022/10/21 02:37:07;;;;;;;24.73;14.00;;;;;;;7.23;68.85;100431.19;5035449;27;98498;-92
2022/10/21 02:39:48;;;;;;;25.40;14.17;;;;;;;7.38;67.63;100415.22;5004468;27;101295;-90
2022/10/21 02:42:18;;;;;;;26.30;14.18;;;;;;;7.47;68.01;100435.06;5023813;27;96705;-92
2022/10/21 02:44:44;;;;;;;24.25;14.18;;;;;;;7.44;67.83;100432.50;5018711;27;97162;-92
2022/10/21 02:47:10;;;;;;;26.70;15.05;;;;;;;7.38;68.20;100420.44;5042521;27;98160;-92
2022/10/21 02:49:35;;;;;;;26.13;15.20;;;;;;;7.43;68.22;100421.22;5038723;27;98255;-88
2022/10/21 02:52:01;;;;;;;25.17;14.82;;;;;;;7.42;68.04;100402.97;5048722;27;97247;-92
2022/10/21 02:54:26;;;;;;;26.38;15.55;;;;;;;7.59;68.06;100424.41;5040049;27;97418;-91
2022/10/21 02:56:52;;;;;;;22.30;13.93;;;;;;;7.57;67.87;100420.94;5051607;27;99708;-92
2022/10/21 02:59:17;;;;;;;26.33;14.33;;;;;;;7.66;67.59;100420.75;4999232;28;101238;-92
2022/10/21 03:01:43;;;;;;;23.83;14.17;;;;;;;7.69;68.03;100422.44;5009383;28;96861;-92
2022/10/21 03:04:08;;;;;;;26.50;14.10;;;;;;;7.74;67.34;100415.38;5049705;27;97091;-92
2022/10/21 03:06:34;;;;;;;23.00;13.73;;;;;;;7.71;67.76;100418.06;5023799;27;100911;-87
2022/10/21 03:08:59;;;;;;;20.38;12.88;;;;;;;7.75;67.73;100414.47;5054060;27;101921;-91
2022/10/21 03:11:25;;;;;;;22.48;14.15;;;;;;;7.84;67.47;100421.28;4998578;28;97176;-92
2022/10/21 03:13:50;;;;;;;22.35;13.40;;;;;;;7.71;67.53;100405.84;5033422;27;97214;-91
2022/10/21 03:16:16;;;;;;;23.40;13.45;;;;;;;7.85;67.72;100415.13;5036241;27;97517;-92
2022/10/21 03:18:41;;;;;;;27.45;14.35;;;;;;;7.78;67.75;100392.66;5052034;27;100549;-92
2022/10/21 03:21:07;;;;;;;24.23;14.18;;;;;;;7.96;67.73;100407.94;5060787;27;97154;-91
2022/10/21 03:23:33;;;;;;;19.13;12.90;;;;;;;7.96;67.64;100407.94;5054624;27;96799;-93
2022/10/21 03:25:58;;;;;;;22.85;13.13;;;;;;;7.96;67.51;100409.69;5051080;27;98580;-92
2022/10/21 03:28:24;;;;;;;20.48;12.90;;;;;;;7.82;67.74;100387.31;5019987;27;101709;-91
2022/10/21 03:30:49;;;;;;;23.33;13.13;;;;;;;7.81;67.93;100400.44;5034004;27;97333;-92
2022/10/21 03:33:15;;;;;;;23.27;13.50;;;;;;;7.86;68.04;100388.13;5015326;28;97245;-91
2022/10/21 03:35:40;;;;;;;21.63;13.57;;;;;;;7.88;67.55;100378.47;5014676;28;101149;-92
2022/10/21 03:38:06;;;;;;;24.40;13.80;;;;;;;7.91;67.79;100387.13;5014530;28;101723;-92
2022/10/21 03:40:32;;;;;;;22.05;12.95;;;;;;;7.92;68.12;100374.91;5019842;27;97187;-91
2022/10/21 03:42:58;;;;;;;21.27;13.43;;;;;;;7.84;68.30;100371.63;5020074;27;97098;-92
2022/10/21 03:45:23;;;;;;;23.23;13.82;;;;;;;7.78;68.42;100382.19;5050309;27;102006;-92
2022/10/21 03:47:49;;;;;;;21.02;12.55;;;;;;;7.83;68.28;100385.59;5037458;27;101173;-91
2022/10/21 03:50:15;;;;;;;21.63;12.40;;;;;;;7.87;68.26;100384.59;5056400;27;96564;-92
2022/10/21 03:52:40;;;;;;;19.50;12.23;;;;;;;7.90;68.18;100387.16;5021779;27;96787;-88
2022/10/21 03:55:06;;;;;;;21.02;12.63;;;;;;;7.78;68.25;100359.53;5021298;27;100365;-92
2022/10/21 03:57:32;;;;;;;22.17;13.05;;;;;;;7.94;68.14;100368.78;5021711;27;100681;-91
2022/10/21 03:59:57;;;;;;;20.30;12.55;;;;;;;7.96;68.14;100379.19;5054852;27;96985;-92
2022/10/21 04:02:23;;;;;;;18.40;11.52;;;;;;;7.98;68.45;100377.41;5026142;27;97305;-91
2022/10/21 04:04:49;;;;;;;24.25;12.68;;;;;;;8.01;68.84;100366.88;5003482;27;100295;-90
2022/10/21 04:07:14;;;;;;;20.10;11.50;;;;;;;8.15;68.13;100364.78;5038593;27;97922;-91
2022/10/21 04:09:40;;;;;;;19.10;11.68;;;;;;;8.18;68.46;100355.16;5037841;27;96661;-86
2022/10/21 04:12:05;;;;;;;19.40;11.63;;;;;;;8.21;68.57;100358.56;5038991;27;96847;-90
2022/10/21 04:14:31;;;;;;;18.42;11.93;;;;;;;8.12;68.98;100341.34;5021267;27;100978;-91
2022/10/21 04:16:56;;;;;;;21.15;11.40;;;;;;;8.14;68.60;100351.75;5021182;27;100316;-92
2022/10/21 04:19:22;;;;;;;20.65;11.30;;;;;;;8.10;69.13;100340.50;5007450;27;96872;-92
2022/10/21 04:21:47;;;;;;;18.52;10.23;;;;;;;8.11;69.02;100331.75;5037163;27;96882;-93
2022/10/21 04:24:13;;;;;;;16.40;11.13;;;;;;;8.22;69.21;100348.97;5054856;27;101491;-91
2022/10/21 04:26:41;;;;;;;20.60;10.18;;;;;;;8.27;69.07;100349.72;5038325;27;98097;-87
2022/10/21 04:29:07;;;;;;;17.65;9.93;;;;;;;8.37;68.97;100343.34;5021688;27;96714;-92
2022/10/21 04:31:33;;;;;;;15.45;9.65;;;;;;;8.41;69.19;100345.03;5021748;27;96872;-92
2022/10/21 04:33:58;;;;;;;16.42;9.88;;;;;;;8.49;68.59;100342.22;5037499;27;97353;-91
2022/10/21 04:36:24;;;;;;;16.17;10.23;;;;;;;8.41;69.05;100337.19;5024345;28;98067;-91
2022/10/21 04:38:50;;;;;;;19.88;10.27;;;;;;;8.43;69.49;100324.06;5044161;27;97124;-92
2022/10/21 04:41:15;;;;;;;15.27;9.50;;;;;;;8.44;69.30;100305.72;5055548;27;97079;-92
2022/10/21 04:43:41;;;;;;;16.75;9.55;;;;;;;8.52;69.20;100306.41;5019876;27;101170;-86
2022/10/21 04:46:13;;;;;;;16.67;8.57;;;;;;;8.58;68.87;100287.03;5000722;27;101563;-89
2022/10/21 04:48:39;;;;;;;14.60;8.68;;;;;;;8.74;69.13;100305.81;5025233;27;97328;-91
2022/10/21 04:51:04;;;;;;;16.90;8.98;;;;;;;8.59;69.28;100288.78;5018822;27;97307;-88
2022/10/21 04:53:30;;;;;;;15.82;9.80;;;;;;;8.61;69.47;100294.84;5020653;27;102745;-93
2022/10/21 04:55:56;;;;;;;11.07;7.97;;;;;;;8.64;69.97;100272.94;5014150;27;101514;-92
2022/10/21 04:58:22;;;;;;;13.18;9.05;;;;;;;8.54;70.17;100246.16;5037247;27;96728;-90
2022/10/21 05:00:48;;;;;;;13.77;8.48;;;;;;;8.71;69.80;100272.72;5029070;28;97071;-93
2022/10/21 05:03:14;;;;;;;14.25;8.10;;;;;;;8.77;69.97;100272.56;5016499;27;101166;-88
2022/10/21 05:05:39;;;;;;;15.40;8.25;;;;;;;8.77;69.51;100263.84;5037146;27;98162;-88
2022/10/21 05:08:05;;;;;;;12.00;7.63;;;;;;;8.92;69.79;100259.94;4998416;27;96745;-87
2022/10/21 05:10:30;;;;;;;12.95;7.82;;;;;;;8.93;70.02;100262.53;5031885;27;96962;-88
2022/10/21 05:12:56;;;;;;;10.25;7.03;;;;;;;9.00;69.78;100252.75;5037628;27;98208;-89
2022/10/21 05:15:23;;;;;;;12.52;7.47;;;;;;;8.92;70.12;100224.16;5005371;27;101537;-91
2022/10/21 05:17:50;;;;;;;12.63;6.90;;;;;;;9.06;69.90;100236.84;5056175;27;96607;-91
2022/10/21 05:20:15;;;;;;;11.75;6.90;;;;;;;9.14;70.10;100234.03;5044806;27;96776;-91
2022/10/21 05:22:41;;;;;;;10.80;5.72;;;;;;;9.13;69.99;100206.09;5020166;27;98684;-91
2022/10/21 05:25:07;;;;;;;9.00;5.70;;;;;;;9.37;69.85;100233.34;5039977;27;101319;-91
2022/10/21 05:27:33;;;;;;;8.73;5.25;;;;;;;9.44;69.06;100209.50;5047746;27;96921;-85
2022/10/21 05:29:58;;;;;;;6.70;4.63;;;;;;;9.71;68.72;100209.53;5019288;27;96943;-83
2022/10/21 05:32:24;;;;;;;10.32;4.40;;;;;;;9.87;67.94;100210.75;5054313;27;97300;-84
2022/10/21 05:34:49;;;;;;;6.80;4.63;;;;;;;9.86;67.38;100203.81;5035338;27;97965;-92
2022/10/21 05:37:15;;;;;;;6.55;4.57;;;;;;;10.08;66.66;100196.06;5029281;27;96750;-87
2022/10/21 05:39:41;;;;;;;9.68;5.22;;;;;;;10.20;66.60;100194.78;5000728;27;97493;-83
2022/10/21 05:42:06;;;;;;;7.47;4.90;;;;;;;10.32;66.08;100202.25;5024016;27;101813;-88
2022/10/21 05:44:32;;;;;;;13.30;4.90;;;;;;;10.41;65.54;100201.97;5021567;27;100669;-91
2022/10/21 05:46:57;;;;;;;8.82;5.03;;;;;;;10.48;65.20;100178.97;5022387;27;97382;-89
2022/10/21 05:49:23;;;;;;;9.18;4.35;;;;;;;10.57;65.20;100193.53;5029146;27;97031;-91
2022/10/21 05:51:48;;;;;;;15.15;4.70;;;;;;;10.56;64.73;100190.06;5049699;27;101506;-91
2022/10/21 05:54:14;;;;;;;12.07;5.18;;;;;;;10.59;64.84;100184.69;5017884;27;101555;-92
2022/10/21 05:56:41;;;;;;;9.23;5.00;;;;;;;10.62;64.40;100184.59;5014405;27;96737;-93
2022/10/21 05:59:07;;;;;;;7.20;4.65;;;;;;;10.65;64.70;100188.88;5031784;27;96934;-91
2022/10/21 06:01:34;;;;;;;10.05;5.55;;;;;;;10.57;65.18;100193.53;5033229;27;100379;-92
2022/10/21 06:03:59;;;;;;;10.82;7.03;;;;;;;10.36;64.85;100167.16;5013137;27;98224;-91
2022/10/21 06:06:25;;;;;;;13.23;7.80;;;;;;;10.30;65.40;100174.41;5033976;27;96838;-92
2022/10/21 06:08:50;;;;;;;10.70;7.57;;;;;;;10.13;65.55;100173.16;5052710;27;96854;-93
2022/10/21 06:11:17;;;;;;;12.15;7.70;;;;;;;10.05;65.88;100184.84;5016392;27;101239;-93
2022/10/21 06:13:43;;;;;;;14.23;7.57;;;;;;;9.96;65.88;100197.34;5019454;27;101100;-92
2022/10/21 06:16:10;;;;;;;13.57;7.63;;;;;;;9.87;65.88;100194.19;5019603;27;96862;-92
2022/10/21 06:18:35;;;;;;;15.43;7.35;;;;;;;9.77;66.46;100190.97;5021577;27;97928;-93
2022/10/21 06:21:01;;;;;;;11.88;6.80;;;;;;;9.50;66.00;100156.06;5009213;27;100505;-93
2022/10/21 06:23:27;;;;;;;12.57;7.05;;;;;;;9.65;66.34;100197.47;5027809;27;100571;-93
2022/10/21 06:25:57;;;;;;;11.82;6.47;;;;;;;9.41;66.32;100169.44;5021360;27;96811;-91
2022/10/21 06:28:24;;;;;;;10.57;6.55;;;;;;;9.52;66.31;100193.56;5040101;27;96771;-93
2022/10/21 06:30:50;;;;;;;9.52;6.20;;;;;;;9.48;66.85;100191.91;5018498;27;100726;-89
2022/10/21 06:33:16;;;;;;;9.85;6.22;;;;;;;9.43;66.45;100184.22;5017267;27;101769;-93
2022/10/21 06:35:41;;;;;;;12.00;6.18;;;;;;;9.31;66.54;100163.66;5019310;27;97217;-92
2022/10/21 06:38:07;;;;;;;13.35;6.45;;;;;;;9.35;66.74;100180.97;5019201;27;97800;-90
2022/10/21 06:40:32;;;;;;;10.52;6.40;;;;;;;9.35;66.79;100193.22;5018706;27;100370;-89
2022/10/21 06:42:58;;;;;;;12.10;7.13;;;;;;;9.35;67.06;100186.22;5032011;27;101570;-90
2022/10/21 06:45:23;;;;;;;18.02;7.07;;;;;;;9.33;67.14;100174.91;4999242;28;97009;-89
2022/10/21 06:47:49;;;;;;;16.10;6.65;;;;;;;9.38;67.56;100188.75;5035967;27;96955;-89
2022/10/21 06:50:14;;;;;;;17.95;7.40;;;;;;;9.17;67.67;100150.13;5019105;27;101154;-89
2022/10/21 06:52:40;;;;;;;13.30;7.20;;;;;;;9.23;67.42;100163.88;5018711;27;100244;-88
2022/10/21 06:55:06;;;;;;;17.75;7.15;;;;;;;9.43;67.14;100188.59;5019251;27;97338;-89
2022/10/21 06:57:32;;;;;;;10.40;6.80;;;;;;;9.47;66.95;100172.72;5002128;27;96907;-84
2022/10/21 06:59:58;;;;;;;9.07;6.38;;;;;;;9.42;67.29;100155.44;5032574;27;101026;-84
2022/10/21 07:02:23;;;;;;;16.25;6.60;;;;;;;9.39;67.40;100166.00;5034682;27;98468;-83
2022/10/21 07:04:51;;;;;;;14.00;7.10;;;;;;;9.30;67.41;100154.91;5016978;27;96780;-85
2022/10/21 07:07:17;;;;;;;11.23;6.28;;;;;;;9.44;66.92;100166.72;5017798;27;96836;-84
2022/10/21 07:09:43;;;;;;;14.73;7.05;;;;;;;9.39;67.13;100155.53;5033545;27;98055;-84
2022/10/21 07:12:08;;;;;;;14.15;8.30;;;;;;;9.37;67.14;100160.84;5016354;28;97420;-86
2022/10/21 07:14:34;;;;;;;10.70;7.13;;;;;;;9.45;67.23;100155.34;5001181;27;97233;-86
2022/10/21 07:17:00;;;;;;;12.05;7.00;;;;;;;9.40;67.08;100152.88;5025668;27;96814;-91
2022/10/21 07:19:25;;;;;;;10.63;6.72;;;;;;;9.52;67.01;100167.34;5039295;27;97481;-90
2022/10/21 07:21:51;;;;;;;10.20;6.30;;;;;;;9.55;67.28;100169.88;5072349;27;100328;-89
2022/10/21 07:24:16;;;;;;;11.52;6.13;;;;;;;9.57;66.57;100167.19;5038761;27;96745;-92
2022/10/21 07:26:42;;;;;;;10.23;6.32;;;;;;;9.59;67.01;100168.84;5040088;27;96763;-89
2022/10/21 07:29:07;;;;;;;11.82;6.25;;;;;;;9.76;66.78;100173.56;5047117;27;100980;-89
2022/10/21 07:31:36;;;;;;;14.45;6.65;;;;;;;9.78;66.09;100173.50;5044293;27;101574;-90
2022/10/21 07:34:03;;;;;;;9.63;6.70;;;;;;;9.85;66.51;100168.00;5020641;27;97510;-90
2022/10/21 07:36:31;;;;;;;11.57;6.68;;;;;;;9.82;66.13;100155.00;5038833;27;96810;-91
2022/10/21 07:39:01;;;;;;;16.02;6.53;;;;;;;9.99;66.35;100159.66;5003429;27;101096;-91
2022/10/21 07:41:29;;;;;;;12.68;7.07;;;;;;;9.95;66.31;100144.97;5038367;27;97340;-90
2022/10/21 07:43:55;;;;;;;12.05;6.60;;;;;;;10.13;66.35;100170.53;5040177;27;96785;-87
2022/10/21 07:46:21;;;;;;;16.08;6.32;;;;;;;10.19;65.70;100170.34;5032394;27;97508;-87
2022/10/21 07:48:47;;;;;;;8.23;5.47;;;;;;;10.25;65.64;100163.16;5051463;27;101006;-87
2022/10/21 07:51:15;;;;;;;10.55;6.28;;;;;;;10.16;65.78;100156.47;5001237;27;101740;-86
2022/10/21 07:53:41;;;;;;;11.93;6.70;;;;;;;10.33;65.60;100169.03;5038178;27;97318;-89
2022/10/21 07:56:16;;;;;;;9.27;5.93;;;;;;;10.42;65.54;100179.19;5016026;27;96969;-90
2022/10/21 07:58:42;;;;;;;11.98;6.28;;;;;;;10.42;65.43;100173.94;5023746;27;98440;-91
2022/10/21 08:01:09;;;;;;;11.52;6.82;;;;;;;10.32;65.40;100146.31;5005413;27;100406;-93
2022/10/21 08:03:35;;;;;;;13.55;5.97;;;;;;;10.49;65.63;100157.06;5022215;27;97717;-92
2022/10/21 08:06:02;;;;;;;8.57;5.70;;;;;;;10.61;65.61;100163.63;5025749;27;97266;-91
2022/10/21 08:08:29;;;;;;;12.88;6.32;;;;;;;10.72;65.19;100161.47;5029128;27;100202;-90
2022/10/21 08:10:56;;;;;;;11.52;5.88;;;;;;;10.74;64.91;100151.78;5027985;27;100333;-88
2022/10/21 08:13:22;;;;;;;10.82;5.53;;;;;;;10.75;65.15;100155.25;5063562;27;97357;-87
2022/10/21 08:15:50;;;;;;;10.07;6.03;;;;;;;10.86;64.97;100167.06;5025083;27;96900;-89
2022/10/21 08:18:17;;;;;;;11.35;5.40;;;;;;;10.80;64.70;100158.56;5036464;27;98595;-92
2022/10/21 08:20:44;;;;;;;12.88;6.20;;;;;;;10.96;64.27;100164.94;5020039;27;99886;-89
2022/10/21 08:23:11;;;;;;;8.00;5.00;;;;;;;10.88;64.51;100156.53;5021846;27;97360;-91
2022/10/21 08:25:36;;;;;;;8.90;5.70;;;;;;;10.87;64.86;100145.13;5023878;27;97242;-90
2022/10/21 08:28:03;;;;;;;13.30;5.75;;;;;;;11.06;64.34;100161.06;5013299;28;98200;-89
2022/10/21 08:30:30;;;;;;;10.73;5.60;;;;;;;10.99;64.24;100143.81;5038514;27;98124;-90
2022/10/21 08:32:57;;;;;;;11.95;5.53;;;;;;;11.09;63.97;100132.03;5037455;27;97222;-90
2022/10/21 08:35:23;;;;;;;7.28;4.93;;;;;;;11.14;64.30;100149.38;5031109;27;96896;-90
2022/10/21 08:37:48;;;;;;;8.38;5.93;;;;;;;11.21;64.40;100129.84;5042173;27;98473;-86
2022/10/21 08:40:14;;;;;;;10.52;5.43;;;;;;;11.56;63.97;100147.69;5024759;27;98496;-87
2022/10/21 08:42:44;;;;;;;8.68;5.03;;;;;;;11.71;63.31;100130.41;5046053;27;96774;-87
2022/10/21 08:45:31;;;;;;;8.27;5.70;;;;;;;11.70;63.12;100126.09;5004864;27;98459;-89
2022/10/21 08:48:02;;;;;;;8.07;5.15;;;;;;;11.92;62.99;100126.06;5004544;27;101361;-90
2022/10/21 08:50:34;;;;;;;9.98;5.25;;;;;;;12.32;62.03;100123.47;5017671;27;100964;-90
2022/10/21 08:53:31;;;;;;;9.90;6.20;;;;;;;12.59;60.35;100114.31;5020824;27;97224;-90
2022/10/21 08:56:01;;;;;;;11.52;6.05;;;;;;;12.80;60.85;100119.53;4998231;28;96834;-89
2022/10/21 08:58:27;;;;;;;10.55;5.78;;;;;;;12.81;61.13;100114.22;5028084;27;101447;-89
2022/10/21 09:00:56;;;;;;;11.70;6.30;;;;;;;13.00;59.67;100113.34;5028610;27;98367;-91
2022/10/21 09:03:34;;;;;;;10.27;5.55;;;;;;;13.18;59.19;100120.38;5025241;27;97326;-91
2022/10/21 09:06:20;;;;;;;9.80;5.53;;;;;;;13.02;60.03;100116.75;5021187;27;97306;-91
2022/10/21 09:09:17;;;;;;;8.73;5.63;;;;;;;13.12;60.80;100111.00;5034919;27;98406;-90
2022/10/21 09:11:55;;;;;;;14.00;7.70;;;;;;;12.95;59.81;100095.13;5047789;27;97609;-91
2022/10/21 09:14:40;;;;;;;11.40;6.63;;;;;;;12.95;60.15;100115.34;5018695;27;96781;-90
2022/10/21 09:17:27;;;;;;;8.07;6.20;;;;;;;12.81;60.64;100108.94;5022370;27;96836;-92
2022/10/21 09:20:20;;;;;;;12.13;6.35;;;;;;;12.99;60.50;100101.94;5020014;27;101523;-91
2022/10/21 09:22:56;;;;;;;13.25;5.72;;;;;;;13.38;61.10;100108.03;5018322;27;99268;-89
2022/10/21 09:25:36;;;;;;;11.73;5.88;;;;;;;13.52;59.49;100095.03;5021992;27;96754;-89
2022/10/21 09:28:11;;;;;;;10.38;5.85;;;;;;;13.66;59.01;100086.44;5043985;27;97346;-89
2022/10/21 09:30:38;;;;;;;9.15;5.00;;;;;;;14.06;58.29;100085.25;5017725;27;100553;-88
2022/10/21 09:33:15;;;;;;;13.73;6.25;;;;;;;14.00;57.98;100062.66;5002908;27;100801;-89
2022/10/21 09:35:47;;;;;;;9.85;5.45;;;;;;;14.28;57.48;100063.81;4999532;28;96738;-86
2022/10/21 09:38:15;;;;;;;8.25;5.47;;;;;;;14.73;56.71;100069.41;5016816;27;97354;-84
2022/10/21 09:40:41;;;;;;;13.07;5.82;;;;;;;15.13;55.88;100065.38;5036647;27;98668;-88
2022/10/21 09:43:15;;;;;;;12.25;5.15;;;;;;;15.33;54.95;100038.63;5002313;27;100180;-88
2022/10/21 09:45:43;;;;;;;8.55;5.10;;;;;;;15.74;54.62;100059.19;5007844;27;96876;-89
2022/10/21 09:48:27;;;;;;;13.25;5.07;;;;;;;15.82;54.14;100032.25;5020555;27;96882;-89
2022/10/21 09:50:57;;;;;;;6.15;4.45;;;;;;;16.07;53.36;100029.81;5045908;27;97636;-89
2022/10/21 09:53:35;;;;;;;8.00;4.80;;;;;;;16.10;53.69;100020.84;5031423;27;98057;-89
2022/10/21 09:56:21;;;;;;;8.52;4.65;;;;;;;16.44;53.38;100019.59;5033061;28;97864;-89
2022/10/21 09:59:02;;;;;;;9.45;4.22;;;;;;;17.06;52.14;100047.50;5036221;27;96938;-88
2022/10/21 10:01:28;;;;;;;7.85;3.88;;;;;;;17.02;51.11;100030.94;5038358;27;98474;-89
2022/10/21 10:03:54;;;;;;;9.75;3.90;;;;;;;16.70;50.09;100027.69;5004233;27;101284;-89
2022/10/21 10:06:41;;;;;;;7.00;3.60;;;;;;;16.48;50.43;100033.50;5020055;27;96678;-90
2022/10/21 10:09:14;;;;;;;5.72;3.95;;;;;;;16.25;49.86;100017.22;5040772;27;98827;-89
2022/10/21 10:12:00;;;;;;;9.57;3.90;;;;;;;16.51;49.35;100014.75;5055021;27;97714;-89
2022/10/21 10:14:33;;;;;;;6.68;3.90;;;;;;;16.57;49.33;100024.09;5034321;27;98268;-90
2022/10/21 10:17:25;;;;;;;10.45;4.10;;;;;;;16.57;49.71;100005.56;5020283;27;97088;-89
2022/10/21 10:20:03;;;;;;;9.57;3.30;;;;;;;16.20;50.43;100006.09;5043946;27;97047;-89
2022/10/21 10:22:40;;;;;;;5.97;3.65;;;;;;;15.96;51.02;99989.06;5053388;27;101773;-89
2022/10/21 10:25:20;;;;;;;9.02;3.90;;;;;;;15.94;50.98;100017.41;5064602;27;97213;-88
2022/10/21 10:27:59;;;;;;;9.27;4.00;;;;;;;15.69;52.14;100010.13;5054710;27;96722;-89
2022/10/21 10:30:28;;;;;;;5.97;3.80;;;;;;;15.51;52.97;100012.06;5055557;27;96762;-90
2022/10/21 10:32:55;;;;;;;7.15;3.55;;;;;;;15.48;52.55;100014.88;5036342;27;98474;-89
2022/10/21 10:35:25;;;;;;;6.78;3.58;;;;;;;15.67;52.33;100004.03;5020178;27;101640;-90
2022/10/21 10:37:51;;;;;;;6.07;3.30;;;;;;;15.48;51.76;99965.47;5003543;27;96907;-90
2022/10/21 10:40:31;;;;;;;8.82;3.72;;;;;;;15.48;52.04;99994.56;5020322;27;96627;-90
2022/10/21 10:43:13;;;;;;;8.98;4.28;;;;;;;15.32;52.29;99985.81;5021208;27;100741;-89
2022/10/21 10:45:46;;;;;;;8.45;4.57;;;;;;;15.40;52.34;100000.31;5039506;27;96690;-89
2022/10/21 10:48:20;;;;;;;8.60;3.70;;;;;;;15.32;52.25;100002.53;5029960;27;96836;-89
2022/10/21 10:50:48;;;;;;;9.68;3.58;;;;;;;15.38;52.19;99998.69;5020480;27;96775;-87
2022/10/21 10:53:16;;;;;;;6.40;3.50;;;;;;;15.27;52.46;99983.47;5035317;27;98520;-84
2022/10/21 10:55:43;;;;;;;3.90;3.08;;;;;;;15.43;52.01;99977.25;5035254;27;97561;-84
2022/10/21 10:58:09;;;;;;;10.25;4.07;;;;;;;15.65;52.29;99975.03;5017223;27;97242;-86
2022/10/21 11:00:39;;;;;;;7.78;3.90;;;;;;;15.71;51.45;99976.50;5020415;27;96830;-86
2022/10/21 11:03:10;;;;;;;12.83;4.17;;;;;;;15.51;51.62;99938.00;5026264;27;101318;-87
2022/10/21 11:05:41;;;;;;;9.75;3.63;;;;;;;15.72;51.65;99951.72;5037856;27;98127;-86
2022/10/21 11:08:20;;;;;;;5.28;3.28;;;;;;;15.74;51.94;99963.09;5027707;27;96696;-86
2022/10/21 11:10:49;;;;;;;6.88;3.55;;;;;;;15.60;51.58;99930.34;5012564;27;96919;-87
2022/10/21 11:13:17;;;;;;;10.40;3.58;;;;;;;15.76;51.13;99958.53;5038766;27;98548;-90
2022/10/21 11:16:01;;;;;;;10.88;3.80;;;;;;;15.82;51.10;99961.66;5041706;27;97661;-87
2022/10/21 11:18:37;;;;;;;7.65;3.55;;;;;;;15.81;51.47;99962.59;5047092;27;96786;-88
2022/10/21 11:21:17;;;;;;;8.65;3.25;;;;;;;15.74;51.27;99958.63;5038412;27;98399;-85
2022/10/21 11:23:52;;;;;;;9.18;3.72;;;;;;;15.75;51.56;99959.47;5035361;27;97423;-91
2022/10/21 11:26:29;;;;;;;9.40;3.45;;;;;;;15.73;51.65;99967.50;5020401;27;101293;-87
2022/10/21 11:29:13;;;;;;;9.32;4.68;;;;;;;15.52;51.95;99945.81;5044050;27;96954;-86